sensor_id;sensor_type;location;lat;lon;timestamp;temperature;humidity
16267;DHT22;8241;48.786;9.250;2022-07-29T00:02:06;21.70;99.90
16267;DHT22;8241;48.786;9.250;2022-07-29T00:04:34;21.70;99.90
16267;DHT22;8241;48.786;9.250;2022-07-29T00:07:02;21.70;99.90
16267;DHT22;8241;48.786;9.250;2022-07-29T00:09:30;21.70;99.90
16267;DHT22;8241;48.786;9.250;2022-07-29T00:12:00;21.60;99.90
16267;DHT22;8241;48.786;9.250;2022-07-29T00:14:29;21.60;99.90
16267;DHT22;8241;48.786;9.250;2022-07-29T00:16:56;21.60;99.90
16267;DHT22;8241;48.786;9.250;2022-07-29T00:19:23;21.70;99.90
16267;DHT22;8241;48.786;9.250;2022-07-29T00:21:49;21.70;99.90
16267;DHT22;8241;48.786;9.250;2022-07-29T00:24:18;21.60;99.90
16267;DHT22;8241;48.786;9.250;2022-07-29T00:26:47;21.70;99.90
16267;DHT22;8241;48.786;9.250;2022-07-29T00:29:17;21.70;99.90
16267;DHT22;8241;48.786;9.250;2022-07-29T00:31:45;21.70;99.90
16267;DHT22;8241;48.786;9.250;2022-07-29T00:34:12;21.70;99.90
16267;DHT22;8241;48.786;9.250;2022-07-29T00:36:53;21.70;99.90
16267;DHT22;8241;48.786;9.250;2022-07-29T00:39:19;21.60;99.90
16267;DHT22;8241;48.786;9.250;2022-07-29T00:41:50;21.50;99.90
16267;DHT22;8241;48.786;9.250;2022-07-29T00:44:17;21.60;99.90
16267;DHT22;8241;48.786;9.250;2022-07-29T00:46:44;21.60;99.90
16267;DHT22;8241;48.786;9.250;2022-07-29T00:49:11;21.60;99.90
16267;DHT22;8241;48.786;9.250;2022-07-29T00:51:38;21.50;99.90
16267;DHT22;8241;48.786;9.250;2022-07-29T00:54:05;21.40;99.90
16267;DHT22;8241;48.786;9.250;2022-07-29T00:56:34;21.30;99.90
16267;DHT22;8241;48.786;9.250;2022-07-29T00:59:02;21.10;99.90
16267;DHT22;8241;48.786;9.250;2022-07-29T01:01:29;21.20;99.90
16267;DHT22;8241;48.786;9.250;2022-07-29T01:03:56;21.30;99.90
16267;DHT22;8241;48.786;9.250;2022-07-29T01:06:23;21.10;99.90
16267;DHT22;8241;48.786;9.250;2022-07-29T01:08:51;21.20;99.90
16267;DHT22;8241;48.786;9.250;2022-07-29T01:11:19;21.30;99.90
16267;DHT22;8241;48.786;9.250;2022-07-29T01:13:47;21.40;99.90
16267;DHT22;8241;48.786;9.250;2022-07-29T01:16:23;21.40;99.90
16267;DHT22;8241;48.786;9.250;2022-07-29T01:18:58;21.40;99.90
16267;DHT22;8241;48.786;9.250;2022-07-29T01:21:50;21.50;99.90
16267;DHT22;8241;48.786;9.250;2022-07-29T01:24:33;21.30;99.90
16267;DHT22;8241;48.786;9.250;2022-07-29T01:27:16;21.30;99.90
16267;DHT22;8241;48.786;9.250;2022-07-29T01:29:59;21.20;99.90
16267;DHT22;8241;48.786;9.250;2022-07-29T01:32:35;21.30;99.90
16267;DHT22;8241;48.786;9.250;2022-07-29T01:35:06;21.10;99.90
16267;DHT22;8241;48.786;9.250;2022-07-29T01:37:43;20.90;99.90
16267;DHT22;8241;48.786;9.250;2022-07-29T01:40:18;21.00;99.90
16267;DHT22;8241;48.786;9.250;2022-07-29T01:42:50;21.10;99.90
16267;DHT22;8241;48.786;9.250;2022-07-29T01:45:23;21.10;99.90
16267;DHT22;8241;48.786;9.250;2022-07-29T01:47:56;21.20;99.90
16267;DHT22;8241;48.786;9.250;2022-07-29T01:50:30;21.10;99.90
16267;DHT22;8241;48.786;9.250;2022-07-29T01:53:00;21.20;99.90
16267;DHT22;8241;48.786;9.250;2022-07-29T01:55:31;21.20;99.90
16267;DHT22;8241;48.786;9.250;2022-07-29T01:57:59;21.20;99.90
16267;DHT22;8241;48.786;9.250;2022-07-29T02:00:30;21.20;99.90
16267;DHT22;8241;48.786;9.250;2022-07-29T02:03:05;21.20;99.90
16267;DHT22;8241;48.786;9.250;2022-07-29T02:05:35;21.20;99.90
16267;DHT22;8241;48.786;9.250;2022-07-29T02:08:04;21.20;99.90
16267;DHT22;8241;48.786;9.250;2022-07-29T02:10:33;21.20;99.90
16267;DHT22;8241;48.786;9.250;2022-07-29T02:13:02;21.10;99.90
16267;DHT22;8241;48.786;9.250;2022-07-29T02:15:32;21.10;99.90
16267;DHT22;8241;48.786;9.250;2022-07-29T02:18:05;21.00;99.90
16267;DHT22;8241;48.786;9.250;2022-07-29T02:20:33;21.00;99.90
16267;DHT22;8241;48.786;9.250;2022-07-29T02:23:01;21.00;99.90
16267;DHT22;8241;48.786;9.250;2022-07-29T02:25:32;21.00;99.90
16267;DHT22;8241;48.786;9.250;2022-07-29T02:28:02;20.90;99.90
16267;DHT22;8241;48.786;9.250;2022-07-29T02:30:32;20.90;99.90
16267;DHT22;8241;48.786;9.250;2022-07-29T02:32:59;20.90;99.90
16267;DHT22;8241;48.786;9.250;2022-07-29T02:35:27;20.80;99.90
16267;DHT22;8241;48.786;9.250;2022-07-29T02:38:04;20.80;99.90
16267;DHT22;8241;48.786;9.250;2022-07-29T02:40:49;20.90;99.90
16267;DHT22;8241;48.786;9.250;2022-07-29T02:43:17;20.90;99.90
16267;DHT22;8241;48.786;9.250;2022-07-29T02:45:47;20.90;99.90
16267;DHT22;8241;48.786;9.250;2022-07-29T02:48:24;20.90;99.90
16267;DHT22;8241;48.786;9.250;2022-07-29T02:51:01;21.00;99.90
16267;DHT22;8241;48.786;9.250;2022-07-29T02:53:34;20.90;99.90
16267;DHT22;8241;48.786;9.250;2022-07-29T02:56:08;20.90;99.90
16267;DHT22;8241;48.786;9.250;2022-07-29T02:58:40;20.90;99.90
16267;DHT22;8241;48.786;9.250;2022-07-29T03:01:13;20.90;99.90
16267;DHT22;8241;48.786;9.250;2022-07-29T03:03:43;20.80;99.90
16267;DHT22;8241;48.786;9.250;2022-07-29T03:06:12;20.80;99.90
16267;DHT22;8241;48.786;9.250;2022-07-29T03:08:40;20.80;99.90
16267;DHT22;8241;48.786;9.250;2022-07-29T03:11:08;20.80;99.90
16267;DHT22;8241;48.786;9.250;2022-07-29T03:13:35;20.80;99.90
16267;DHT22;8241;48.786;9.250;2022-07-29T03:16:04;20.80;99.90
16267;DHT22;8241;48.786;9.250;2022-07-29T03:18:33;20.80;99.90
16267;DHT22;8241;48.786;9.250;2022-07-29T03:21:00;20.80;99.90
16267;DHT22;8241;48.786;9.250;2022-07-29T03:23:27;20.90;99.90
16267;DHT22;8241;48.786;9.250;2022-07-29T03:25:55;20.90;99.90
16267;DHT22;8241;48.786;9.250;2022-07-29T03:28:22;20.80;99.90
16267;DHT22;8241;48.786;9.250;2022-07-29T03:30:50;20.80;99.90
16267;DHT22;8241;48.786;9.250;2022-07-29T03:33:17;20.70;99.90
16267;DHT22;8241;48.786;9.250;2022-07-29T03:35:45;20.70;99.90
16267;DHT22;8241;48.786;9.250;2022-07-29T03:38:12;20.70;99.90
16267;DHT22;8241;48.786;9.250;2022-07-29T03:40:44;20.70;99.90
16267;DHT22;8241;48.786;9.250;2022-07-29T03:43:17;20.60;99.90
16267;DHT22;8241;48.786;9.250;2022-07-29T03:45:47;20.70;99.90
16267;DHT22;8241;48.786;9.250;2022-07-29T03:48:20;20.60;99.90
16267;DHT22;8241;48.786;9.250;2022-07-29T03:50:53;20.60;99.90
16267;DHT22;8241;48.786;9.250;2022-07-29T03:53:20;20.60;99.90
16267;DHT22;8241;48.786;9.250;2022-07-29T03:55:50;20.60;99.90
16267;DHT22;8241;48.786;9.250;2022-07-29T03:58:19;20.60;99.90
16267;DHT22;8241;48.786;9.250;2022-07-29T04:00:46;20.60;99.90
16267;DHT22;8241;48.786;9.250;2022-07-29T04:03:13;20.60;99.90
16267;DHT22;8241;48.786;9.250;2022-07-29T04:05:40;20.60;99.90
16267;DHT22;8241;48.786;9.250;2022-07-29T04:08:14;20.60;99.90
16267;DHT22;8241;48.786;9.250;2022-07-29T04:10:42;20.60;99.90
16267;DHT22;8241;48.786;9.250;2022-07-29T04:13:10;20.60;99.90
16267;DHT22;8241;48.786;9.250;2022-07-29T04:15:37;20.60;99.90
16267;DHT22;8241;48.786;9.250;2022-07-29T04:18:04;20.60;99.90
16267;DHT22;8241;48.786;9.250;2022-07-29T04:20:31;20.60;99.90
16267;DHT22;8241;48.786;9.250;2022-07-29T04:22:58;20.70;99.90
16267;DHT22;8241;48.786;9.250;2022-07-29T04:25:26;20.60;99.90
16267;DHT22;8241;48.786;9.250;2022-07-29T04:27:53;20.60;99.90
16267;DHT22;8241;48.786;9.250;2022-07-29T04:30:31;20.60;99.90
16267;DHT22;8241;48.786;9.250;2022-07-29T04:33:01;20.60;99.90
16267;DHT22;8241;48.786;9.250;2022-07-29T04:35:29;20.50;99.90
16267;DHT22;8241;48.786;9.250;2022-07-29T04:37:56;20.60;99.90
16267;DHT22;8241;48.786;9.250;2022-07-29T04:40:23;20.60;99.90
16267;DHT22;8241;48.786;9.250;2022-07-29T04:42:51;20.60;99.90
16267;DHT22;8241;48.786;9.250;2022-07-29T04:45:18;20.60;99.90
16267;DHT22;8241;48.786;9.250;2022-07-29T04:47:45;20.60;99.90
16267;DHT22;8241;48.786;9.250;2022-07-29T04:50:13;20.60;99.90
16267;DHT22;8241;48.786;9.250;2022-07-29T04:52:41;20.60;99.90
16267;DHT22;8241;48.786;9.250;2022-07-29T04:55:17;20.70;99.90
16267;DHT22;8241;48.786;9.250;2022-07-29T04:57:45;20.50;99.90
16267;DHT22;8241;48.786;9.250;2022-07-29T05:00:14;20.20;99.90
16267;DHT22;8241;48.786;9.250;2022-07-29T05:02:41;20.40;99.90
16267;DHT22;8241;48.786;9.250;2022-07-29T05:05:10;20.50;99.90
16267;DHT22;8241;48.786;9.250;2022-07-29T05:07:38;20.60;99.90
16267;DHT22;8241;48.786;9.250;2022-07-29T05:10:05;20.50;99.90
16267;DHT22;8241;48.786;9.250;2022-07-29T05:12:35;20.50;99.90
16267;DHT22;8241;48.786;9.250;2022-07-29T05:15:04;20.50;99.90
16267;DHT22;8241;48.786;9.250;2022-07-29T05:17:38;20.70;99.90
16267;DHT22;8241;48.786;9.250;2022-07-29T05:20:06;20.70;99.90
16267;DHT22;8241;48.786;9.250;2022-07-29T05:22:37;20.50;99.90
16267;DHT22;8241;48.786;9.250;2022-07-29T05:25:06;20.50;99.90
16267;DHT22;8241;48.786;9.250;2022-07-29T05:27:35;20.60;99.90
16267;DHT22;8241;48.786;9.250;2022-07-29T05:30:03;20.60;99.90
16267;DHT22;8241;48.786;9.250;2022-07-29T05:32:30;20.70;99.90
16267;DHT22;8241;48.786;9.250;2022-07-29T05:35:06;20.70;99.90
16267;DHT22;8241;48.786;9.250;2022-07-29T05:37:35;20.80;99.90
16267;DHT22;8241;48.786;9.250;2022-07-29T05:40:03;20.80;99.90
16267;DHT22;8241;48.786;9.250;2022-07-29T05:42:32;20.90;99.90
16267;DHT22;8241;48.786;9.250;2022-07-29T05:44:59;20.90;99.90
16267;DHT22;8241;48.786;9.250;2022-07-29T05:47:26;21.00;99.90
16267;DHT22;8241;48.786;9.250;2022-07-29T05:49:53;20.90;99.90
16267;DHT22;8241;48.786;9.250;2022-07-29T05:52:22;21.00;99.90
16267;DHT22;8241;48.786;9.250;2022-07-29T05:54:49;21.00;99.90
16267;DHT22;8241;48.786;9.250;2022-07-29T05:57:17;20.90;99.90
16267;DHT22;8241;48.786;9.250;2022-07-29T05:59:44;21.00;99.90
16267;DHT22;8241;48.786;9.250;2022-07-29T06:02:11;21.10;99.90
16267;DHT22;8241;48.786;9.250;2022-07-29T06:04:41;21.10;99.90
16267;DHT22;8241;48.786;9.250;2022-07-29T06:07:08;21.20;99.90
16267;DHT22;8241;48.786;9.250;2022-07-29T06:09:38;21.20;99.90
16267;DHT22;8241;48.786;9.250;2022-07-29T06:12:06;21.20;99.90
16267;DHT22;8241;48.786;9.250;2022-07-29T06:14:33;21.40;99.90
16267;DHT22;8241;48.786;9.250;2022-07-29T06:17:00;21.50;99.90
16267;DHT22;8241;48.786;9.250;2022-07-29T06:19:46;21.50;99.90
16267;DHT22;8241;48.786;9.250;2022-07-29T06:22:15;21.60;99.90
16267;DHT22;8241;48.786;9.250;2022-07-29T06:24:54;21.70;99.90
16267;DHT22;8241;48.786;9.250;2022-07-29T06:27:22;21.90;99.90
16267;DHT22;8241;48.786;9.250;2022-07-29T06:29:49;22.00;99.90
16267;DHT22;8241;48.786;9.250;2022-07-29T06:32:18;22.10;99.90
16267;DHT22;8241;48.786;9.250;2022-07-29T06:34:51;22.20;99.90
16267;DHT22;8241;48.786;9.250;2022-07-29T06:40:42;22.40;99.90
16267;DHT22;8241;48.786;9.250;2022-07-29T06:43:33;22.50;99.90
16267;DHT22;8241;48.786;9.250;2022-07-29T06:46:04;22.70;99.90
16267;DHT22;8241;48.786;9.250;2022-07-29T06:48:46;22.80;99.90
16267;DHT22;8241;48.786;9.250;2022-07-29T06:51:23;23.00;99.90
16267;DHT22;8241;48.786;9.250;2022-07-29T06:53:51;23.00;99.90
16267;DHT22;8241;48.786;9.250;2022-07-29T06:56:22;22.90;99.90
16267;DHT22;8241;48.786;9.250;2022-07-29T06:58:49;22.90;99.90
16267;DHT22;8241;48.786;9.250;2022-07-29T07:01:15;23.00;99.90
16267;DHT22;8241;48.786;9.250;2022-07-29T07:03:49;23.00;99.90
16267;DHT22;8241;48.786;9.250;2022-07-29T07:06:15;22.90;99.90
16267;DHT22;8241;48.786;9.250;2022-07-29T07:08:48;23.10;99.90
16267;DHT22;8241;48.786;9.250;2022-07-29T07:11:16;23.20;99.90
16267;DHT22;8241;48.786;9.250;2022-07-29T07:13:45;23.40;99.90
16267;DHT22;8241;48.786;9.250;2022-07-29T07:16:18;23.40;99.90
16267;DHT22;8241;48.786;9.250;2022-07-29T07:18:44;23.40;99.90
16267;DHT22;8241;48.786;9.250;2022-07-29T07:21:11;23.50;99.90
16267;DHT22;8241;48.786;9.250;2022-07-29T07:23:39;23.60;99.90
16267;DHT22;8241;48.786;9.250;2022-07-29T07:26:11;23.60;99.90
16267;DHT22;8241;48.786;9.250;2022-07-29T07:28:38;23.60;99.90
16267;DHT22;8241;48.786;9.250;2022-07-29T07:31:07;23.70;99.90
16267;DHT22;8241;48.786;9.250;2022-07-29T07:33:35;23.80;99.90
16267;DHT22;8241;48.786;9.250;2022-07-29T07:36:04;23.70;99.90
16267;DHT22;8241;48.786;9.250;2022-07-29T07:38:31;23.70;99.90
16267;DHT22;8241;48.786;9.250;2022-07-29T07:40:57;23.70;99.90
16267;DHT22;8241;48.786;9.250;2022-07-29T07:43:24;23.60;99.90
16267;DHT22;8241;48.786;9.250;2022-07-29T07:45:53;23.80;99.90
16267;DHT22;8241;48.786;9.250;2022-07-29T07:48:21;23.80;99.90
16267;DHT22;8241;48.786;9.250;2022-07-29T07:51:20;23.80;99.90
16267;DHT22;8241;48.786;9.250;2022-07-29T07:53:56;24.00;99.90
16267;DHT22;8241;48.786;9.250;2022-07-29T07:56:39;24.00;99.90
16267;DHT22;8241;48.786;9.250;2022-07-29T07:59:06;24.30;99.90
16267;DHT22;8241;48.786;9.250;2022-07-29T08:01:42;24.50;99.90
16267;DHT22;8241;48.786;9.250;2022-07-29T08:04:13;24.60;99.90
16267;DHT22;8241;48.786;9.250;2022-07-29T08:06:40;24.60;99.90
16267;DHT22;8241;48.786;9.250;2022-07-29T08:09:08;24.80;99.90
16267;DHT22;8241;48.786;9.250;2022-07-29T08:11:34;24.60;99.90
16267;DHT22;8241;48.786;9.250;2022-07-29T08:14:01;24.50;99.90
16267;DHT22;8241;48.786;9.250;2022-07-29T08:16:33;24.60;99.90
16267;DHT22;8241;48.786;9.250;2022-07-29T08:19:05;24.70;99.90
16267;DHT22;8241;48.786;9.250;2022-07-29T08:21:38;24.70;99.90
16267;DHT22;8241;48.786;9.250;2022-07-29T08:24:07;24.70;99.90
16267;DHT22;8241;48.786;9.250;2022-07-29T08:27:02;24.90;99.90
16267;DHT22;8241;48.786;9.250;2022-07-29T08:29:37;25.00;99.90
16267;DHT22;8241;48.786;9.250;2022-07-29T08:32:04;25.10;99.90
16267;DHT22;8241;48.786;9.250;2022-07-29T08:34:31;25.10;99.90
16267;DHT22;8241;48.786;9.250;2022-07-29T08:37:01;25.20;99.90
16267;DHT22;8241;48.786;9.250;2022-07-29T08:39:42;25.30;99.90
16267;DHT22;8241;48.786;9.250;2022-07-29T08:42:09;25.50;99.90
16267;DHT22;8241;48.786;9.250;2022-07-29T08:44:38;25.60;99.90
16267;DHT22;8241;48.786;9.250;2022-07-29T08:47:08;25.50;99.90
16267;DHT22;8241;48.786;9.250;2022-07-29T08:49:42;25.50;99.90
16267;DHT22;8241;48.786;9.250;2022-07-29T08:52:16;25.30;99.90
16267;DHT22;8241;48.786;9.250;2022-07-29T08:54:48;25.00;99.90
16267;DHT22;8241;48.786;9.250;2022-07-29T08:57:29;25.10;99.90
16267;DHT22;8241;48.786;9.250;2022-07-29T09:00:05;25.70;99.90
16267;DHT22;8241;48.786;9.250;2022-07-29T09:02:35;26.40;99.90
16267;DHT22;8241;48.786;9.250;2022-07-29T09:05:04;26.90;99.90
16267;DHT22;8241;48.786;9.250;2022-07-29T09:07:39;26.50;99.90
16267;DHT22;8241;48.786;9.250;2022-07-29T09:10:09;27.20;99.90
16267;DHT22;8241;48.786;9.250;2022-07-29T09:12:36;27.60;99.90
16267;DHT22;8241;48.786;9.250;2022-07-29T09:15:09;27.00;99.90
16267;DHT22;8241;48.786;9.250;2022-07-29T09:17:41;26.90;99.90
16267;DHT22;8241;48.786;9.250;2022-07-29T09:20:10;26.90;99.90
16267;DHT22;8241;48.786;9.250;2022-07-29T09:22:48;27.20;99.90
16267;DHT22;8241;48.786;9.250;2022-07-29T09:25:35;27.30;99.90
16267;DHT22;8241;48.786;9.250;2022-07-29T09:28:07;27.60;99.90
16267;DHT22;8241;48.786;9.250;2022-07-29T09:30:50;28.00;99.90
16267;DHT22;8241;48.786;9.250;2022-07-29T09:33:34;28.80;99.90
16267;DHT22;8241;48.786;9.250;2022-07-29T09:36:36;28.80;99.90
16267;DHT22;8241;48.786;9.250;2022-07-29T09:39:07;28.40;99.90
16267;DHT22;8241;48.786;9.250;2022-07-29T09:41:49;27.50;99.90
16267;DHT22;8241;48.786;9.250;2022-07-29T09:44:23;27.30;99.90
16267;DHT22;8241;48.786;9.250;2022-07-29T09:46:59;28.00;99.90
16267;DHT22;8241;48.786;9.250;2022-07-29T09:49:33;28.20;99.90
16267;DHT22;8241;48.786;9.250;2022-07-29T09:52:43;29.10;99.40
16267;DHT22;8241;48.786;9.250;2022-07-29T09:55:19;29.10;99.00
16267;DHT22;8241;48.786;9.250;2022-07-29T09:57:47;29.50;98.30
16267;DHT22;8241;48.786;9.250;2022-07-29T10:00:18;29.50;97.80
16267;DHT22;8241;48.786;9.250;2022-07-29T10:02:50;29.00;98.10
16267;DHT22;8241;48.786;9.250;2022-07-29T10:05:22;29.10;98.60
16267;DHT22;8241;48.786;9.250;2022-07-29T10:07:56;28.80;98.50
16267;DHT22;8241;48.786;9.250;2022-07-29T10:10:26;28.60;98.90
16267;DHT22;8241;48.786;9.250;2022-07-29T10:12:57;28.80;98.70
16267;DHT22;8241;48.786;9.250;2022-07-29T10:15:27;28.90;98.40
16267;DHT22;8241;48.786;9.250;2022-07-29T10:17:56;29.20;97.80
16267;DHT22;8241;48.786;9.250;2022-07-29T10:20:24;29.20;98.00
16267;DHT22;8241;48.786;9.250;2022-07-29T10:22:56;29.10;97.80
16267;DHT22;8241;48.786;9.250;2022-07-29T10:25:37;29.20;97.70
16267;DHT22;8241;48.786;9.250;2022-07-29T10:28:05;29.30;97.20
16267;DHT22;8241;48.786;9.250;2022-07-29T10:30:39;29.10;97.30
16267;DHT22;8241;48.786;9.250;2022-07-29T10:36:32;28.80;97.90
16267;DHT22;8241;48.786;9.250;2022-07-29T10:39:11;28.30;98.60
16267;DHT22;8241;48.786;9.250;2022-07-29T10:42:10;28.20;98.90
16267;DHT22;8241;48.786;9.250;2022-07-29T10:44:40;27.90;99.20
16267;DHT22;8241;48.786;9.250;2022-07-29T10:47:20;27.60;99.10
16267;DHT22;8241;48.786;9.250;2022-07-29T10:49:56;27.50;99.30
16267;DHT22;8241;48.786;9.250;2022-07-29T10:52:23;27.50;99.70
16267;DHT22;8241;48.786;9.250;2022-07-29T10:54:54;27.10;99.90
16267;DHT22;8241;48.786;9.250;2022-07-29T10:57:27;26.50;99.90
16267;DHT22;8241;48.786;9.250;2022-07-29T11:03:03;25.80;99.90
16267;DHT22;8241;48.786;9.250;2022-07-29T11:05:52;25.50;99.90
16267;DHT22;8241;48.786;9.250;2022-07-29T11:08:22;25.50;99.90
16267;DHT22;8241;48.786;9.250;2022-07-29T11:10:53;25.50;99.90
16267;DHT22;8241;48.786;9.250;2022-07-29T11:13:49;25.10;99.90
16267;DHT22;8241;48.786;9.250;2022-07-29T11:16:17;24.40;99.90
16267;DHT22;8241;48.786;9.250;2022-07-29T11:19:21;24.40;99.90
16267;DHT22;8241;48.786;9.250;2022-07-29T11:21:48;24.00;99.90
16267;DHT22;8241;48.786;9.250;2022-07-29T11:24:19;23.50;99.90
16267;DHT22;8241;48.786;9.250;2022-07-29T11:27:11;23.20;99.90
16267;DHT22;8241;48.786;9.250;2022-07-29T11:29:48;21.60;99.90
16267;DHT22;8241;48.786;9.250;2022-07-29T11:32:17;21.30;99.90
16267;DHT22;8241;48.786;9.250;2022-07-29T11:34:46;20.90;99.90
16267;DHT22;8241;48.786;9.250;2022-07-29T11:37:16;20.70;99.90
16267;DHT22;8241;48.786;9.250;2022-07-29T11:39:44;20.10;99.90
16267;DHT22;8241;48.786;9.250;2022-07-29T11:45:27;18.90;99.90
16267;DHT22;8241;48.786;9.250;2022-07-29T11:48:16;18.90;99.90
16267;DHT22;8241;48.786;9.250;2022-07-29T11:50:43;19.00;99.90
16267;DHT22;8241;48.786;9.250;2022-07-29T11:53:12;19.00;99.90
16267;DHT22;8241;48.786;9.250;2022-07-29T11:55:41;19.30;99.90
16267;DHT22;8241;48.786;9.250;2022-07-29T11:58:14;19.60;99.90
16267;DHT22;8241;48.786;9.250;2022-07-29T12:00:46;20.10;99.90
16267;DHT22;8241;48.786;9.250;2022-07-29T12:03:24;20.00;99.90
16267;DHT22;8241;48.786;9.250;2022-07-29T12:06:04;19.00;99.90
16267;DHT22;8241;48.786;9.250;2022-07-29T12:08:43;19.00;99.90
16267;DHT22;8241;48.786;9.250;2022-07-29T12:11:18;18.60;99.90
16267;DHT22;8241;48.786;9.250;2022-07-29T12:13:59;18.50;99.90
16267;DHT22;8241;48.786;9.250;2022-07-29T12:16:36;18.40;99.90
16267;DHT22;8241;48.786;9.250;2022-07-29T12:19:05;18.50;99.90
16267;DHT22;8241;48.786;9.250;2022-07-29T12:21:44;18.60;99.90
16267;DHT22;8241;48.786;9.250;2022-07-29T12:24:15;18.80;99.90
16267;DHT22;8241;48.786;9.250;2022-07-29T12:26:50;18.70;99.90
16267;DHT22;8241;48.786;9.250;2022-07-29T12:29:18;18.80;99.90
16267;DHT22;8241;48.786;9.250;2022-07-29T12:31:51;18.50;99.90
16267;DHT22;8241;48.786;9.250;2022-07-29T12:34:23;18.50;99.90
16267;DHT22;8241;48.786;9.250;2022-07-29T12:36:51;19.00;99.90
16267;DHT22;8241;48.786;9.250;2022-07-29T12:39:18;19.00;99.90
16267;DHT22;8241;48.786;9.250;2022-07-29T12:41:46;19.00;99.90
16267;DHT22;8241;48.786;9.250;2022-07-29T12:44:13;18.80;99.90
16267;DHT22;8241;48.786;9.250;2022-07-29T12:46:40;18.80;99.90
16267;DHT22;8241;48.786;9.250;2022-07-29T12:49:09;18.80;99.90
16267;DHT22;8241;48.786;9.250;2022-07-29T12:51:39;18.60;99.90
16267;DHT22;8241;48.786;9.250;2022-07-29T12:54:08;18.70;99.90
16267;DHT22;8241;48.786;9.250;2022-07-29T12:56:36;18.70;99.90
16267;DHT22;8241;48.786;9.250;2022-07-29T12:59:12;18.80;99.90
16267;DHT22;8241;48.786;9.250;2022-07-29T13:01:39;18.90;99.90
16267;DHT22;8241;48.786;9.250;2022-07-29T13:04:08;18.90;99.90
16267;DHT22;8241;48.786;9.250;2022-07-29T13:06:40;18.90;99.90
16267;DHT22;8241;48.786;9.250;2022-07-29T13:09:09;18.80;99.90
16267;DHT22;8241;48.786;9.250;2022-07-29T13:11:38;19.00;99.90
16267;DHT22;8241;48.786;9.250;2022-07-29T13:14:06;18.80;99.90
16267;DHT22;8241;48.786;9.250;2022-07-29T13:17:02;18.80;99.90
16267;DHT22;8241;48.786;9.250;2022-07-29T13:19:36;19.00;99.90
16267;DHT22;8241;48.786;9.250;2022-07-29T13:22:08;19.20;99.90
16267;DHT22;8241;48.786;9.250;2022-07-29T13:24:46;19.10;99.90
16267;DHT22;8241;48.786;9.250;2022-07-29T13:27:14;19.10;99.90
16267;DHT22;8241;48.786;9.250;2022-07-29T13:29:41;19.20;99.90
16267;DHT22;8241;48.786;9.250;2022-07-29T13:32:08;19.20;99.90
16267;DHT22;8241;48.786;9.250;2022-07-29T13:34:39;19.40;99.90
16267;DHT22;8241;48.786;9.250;2022-07-29T13:37:07;19.50;99.90
16267;DHT22;8241;48.786;9.250;2022-07-29T13:39:36;19.50;99.90
16267;DHT22;8241;48.786;9.250;2022-07-29T13:42:06;19.40;99.90
16267;DHT22;8241;48.786;9.250;2022-07-29T13:44:35;19.50;99.90
16267;DHT22;8241;48.786;9.250;2022-07-29T13:47:07;19.60;99.90
16267;DHT22;8241;48.786;9.250;2022-07-29T13:49:34;19.90;99.90
16267;DHT22;8241;48.786;9.250;2022-07-29T13:52:03;19.90;99.90
16267;DHT22;8241;48.786;9.250;2022-07-29T13:54:39;19.80;99.90
16267;DHT22;8241;48.786;9.250;2022-07-29T13:57:07;19.70;99.90
16267;DHT22;8241;48.786;9.250;2022-07-29T13:59:40;19.60;99.90
16267;DHT22;8241;48.786;9.250;2022-07-29T14:02:08;19.60;99.90
16267;DHT22;8241;48.786;9.250;2022-07-29T14:04:36;19.50;99.90
16267;DHT22;8241;48.786;9.250;2022-07-29T14:07:04;19.70;99.90
16267;DHT22;8241;48.786;9.250;2022-07-29T14:09:31;19.40;99.90
16267;DHT22;8241;48.786;9.250;2022-07-29T14:11:58;19.60;99.90
16267;DHT22;8241;48.786;9.250;2022-07-29T14:14:31;20.00;99.90
16267;DHT22;8241;48.786;9.250;2022-07-29T14:16:58;19.90;99.90
16267;DHT22;8241;48.786;9.250;2022-07-29T14:19:25;21.10;99.90
16267;DHT22;8241;48.786;9.250;2022-07-29T14:21:52;21.20;99.90
16267;DHT22;8241;48.786;9.250;2022-07-29T14:24:20;21.10;99.90
16267;DHT22;8241;48.786;9.250;2022-07-29T14:26:47;21.20;99.90
16267;DHT22;8241;48.786;9.250;2022-07-29T14:29:14;21.20;99.90
16267;DHT22;8241;48.786;9.250;2022-07-29T14:31:41;21.20;99.90
16267;DHT22;8241;48.786;9.250;2022-07-29T14:34:08;21.30;99.90
16267;DHT22;8241;48.786;9.250;2022-07-29T14:36:35;21.40;99.90
16267;DHT22;8241;48.786;9.250;2022-07-29T14:39:02;21.50;99.90
16267;DHT22;8241;48.786;9.250;2022-07-29T14:41:30;21.60;99.90
16267;DHT22;8241;48.786;9.250;2022-07-29T14:43:57;21.70;99.90
16267;DHT22;8241;48.786;9.250;2022-07-29T14:46:26;21.70;99.90
16267;DHT22;8241;48.786;9.250;2022-07-29T14:48:53;21.70;99.90
16267;DHT22;8241;48.786;9.250;2022-07-29T14:51:23;21.80;99.90
16267;DHT22;8241;48.786;9.250;2022-07-29T14:53:50;21.80;99.90
16267;DHT22;8241;48.786;9.250;2022-07-29T14:56:16;21.90;99.90
16267;DHT22;8241;48.786;9.250;2022-07-29T14:58:45;22.00;99.90
16267;DHT22;8241;48.786;9.250;2022-07-29T15:01:12;21.80;99.90
16267;DHT22;8241;48.786;9.250;2022-07-29T15:03:39;21.80;99.90
16267;DHT22;8241;48.786;9.250;2022-07-29T15:06:06;22.00;99.90
16267;DHT22;8241;48.786;9.250;2022-07-29T15:08:33;22.20;99.90
16267;DHT22;8241;48.786;9.250;2022-07-29T15:11:06;22.10;99.90
16267;DHT22;8241;48.786;9.250;2022-07-29T15:13:33;22.00;99.90
16267;DHT22;8241;48.786;9.250;2022-07-29T15:16:01;22.00;99.90
16267;DHT22;8241;48.786;9.250;2022-07-29T15:18:29;22.10;99.90
16267;DHT22;8241;48.786;9.250;2022-07-29T15:20:56;22.00;99.90
16267;DHT22;8241;48.786;9.250;2022-07-29T15:23:23;22.20;99.90
16267;DHT22;8241;48.786;9.250;2022-07-29T15:25:51;22.30;99.90
16267;DHT22;8241;48.786;9.250;2022-07-29T15:28:18;22.30;99.90
16267;DHT22;8241;48.786;9.250;2022-07-29T15:30:46;22.30;99.90
16267;DHT22;8241;48.786;9.250;2022-07-29T15:33:14;22.20;99.90
16267;DHT22;8241;48.786;9.250;2022-07-29T15:35:41;22.20;99.90
16267;DHT22;8241;48.786;9.250;2022-07-29T15:38:07;22.00;99.90
16267;DHT22;8241;48.786;9.250;2022-07-29T15:40:39;22.40;99.90
16267;DHT22;8241;48.786;9.250;2022-07-29T15:43:10;22.40;99.90
16267;DHT22;8241;48.786;9.250;2022-07-29T15:45:37;22.30;99.90
16267;DHT22;8241;48.786;9.250;2022-07-29T15:48:05;22.30;99.90
16267;DHT22;8241;48.786;9.250;2022-07-29T15:50:32;22.40;99.90
16267;DHT22;8241;48.786;9.250;2022-07-29T15:53:00;22.30;99.90
16267;DHT22;8241;48.786;9.250;2022-07-29T15:55:27;22.40;99.90
16267;DHT22;8241;48.786;9.250;2022-07-29T15:57:54;22.40;99.90
16267;DHT22;8241;48.786;9.250;2022-07-29T16:00:20;22.50;99.90
16267;DHT22;8241;48.786;9.250;2022-07-29T16:02:49;22.40;99.90
16267;DHT22;8241;48.786;9.250;2022-07-29T16:05:16;22.50;99.90
16267;DHT22;8241;48.786;9.250;2022-07-29T16:07:44;22.50;99.90
16267;DHT22;8241;48.786;9.250;2022-07-29T16:10:11;22.50;99.90
16267;DHT22;8241;48.786;9.250;2022-07-29T16:12:38;22.50;99.90
16267;DHT22;8241;48.786;9.250;2022-07-29T16:15:07;22.60;99.90
16267;DHT22;8241;48.786;9.250;2022-07-29T16:17:35;22.60;99.90
16267;DHT22;8241;48.786;9.250;2022-07-29T16:20:03;22.70;99.90
16267;DHT22;8241;48.786;9.250;2022-07-29T16:22:31;22.60;99.90